Wanhe — 3FJH7 — position and weather

sailwx.info

Track history (hours):
 
Tides and Currents Weather Stations Pressure Air Temp Water Temp Dewpoint Dewpoint Depression Visibility Wind Speed Wind Dir Waves Ship Positions

Wanhe

Last reported at 2014-Sep-15 14:29 UTC. Time now 2014-Oct-23 03:13 UTC.
Position N 22°23' W 114°42'.
Warning: this ship's position is 37 days out of date.

Length 280 m; draft 13.6 m.

Type: Ship (hazmat cat A). MMSI: 351217000.

Date/timePositionNaut miles runAvg speedWind from/ knotsBaromVisibWave heightAir tempDewpointWater temp
2014-Sep-15 14:29N 22°23' W 114°42'9916.8
2014-Sep-15 08:33N 23°04' W 116°20'2217.5
2014-Sep-15 07:19N 23°13' W 116°41'5417.2
2014-Sep-15 04:11N 23°35' W 117°35'1216.9
2014-Sep-15 03:28N 23°40' W 117°47'1717.4
2014-Sep-15 02:29N 23°51' W 118°02'2217.3
2014-Sep-15 01:11N 24°05' W 118°20'1717.8
2014-Sep-15 00:14N 24°16' W 118°35'1217.6
2014-Sep-14 23:33N 24°23' W 118°45'2617.5
2014-Sep-14 22:04N 24°40' W 119°06'1217.1
2014-Sep-14 21:22N 24°48' W 119°17'24217.4
2014-Sep-14 07:25N 27°50' W 122°15'5017.5
2014-Sep-14 04:33N 28°33' W 122°44'18616.9
2014-Sep-13 17:31N 31°12' W 124°36'2318.2
2014-Sep-13 16:16N 31°32' W 124°50'21717.9
2014-Sep-13 04:09N 34°35' W 127°09'1118.1
2014-Sep-13 03:33N 34°42' W 127°20'1818.0
2014-Sep-13 02:33N 34°52' W 127°38'1818.1
2014-Sep-13 01:33N 35°01' W 127°57'1818.0
2014-Sep-13 00:33N 35°11' W 128°15'1818.0
2014-Sep-12 23:33N 35°22' W 128°33'3817.6
2014-Sep-12 21:22N 35°43' W 129°12'1517.6
2014-Sep-12 20:30N 35°52' W 129°28'1917.6
2014-Sep-12 19:27N 36°02' W 129°47'7417.7
2014-Sep-12 15:14N 36°43' W 131°05'1217.9
2014-Sep-12 14:33N 36°49' W 131°17'1818.0
2014-Sep-12 13:32N 36°59' W 131°37'2517.8
2014-Sep-12 12:09N 37°12' W 132°03'  
Track history (hours):
 
Tides and Currents Weather Stations Pressure Air Temp Water Temp Dewpoint Dewpoint Depression Visibility Wind Speed Wind Dir Waves Ship Positions

Wanhe

Last reported at 2014-Sep-15 14:29 UTC. Time now 2014-Oct-23 03:13 UTC.
Position N 22°23' W 114°42'.
Warning: this ship's position is 37 days out of date.

Length 280 m; draft 13.6 m.

Type: Ship (hazmat cat A). MMSI: 351217000.

Date/timePositionNaut miles runAvg speedWind from/ knotsBaromVisibWave heightAir tempDewpointWater temp
2014-Sep-15 14:29N 22°23' W 114°42'9916.8
2014-Sep-15 08:33N 23°04' W 116°20'2217.5
2014-Sep-15 07:19N 23°13' W 116°41'5417.2
2014-Sep-15 04:11N 23°35' W 117°35'1216.9
2014-Sep-15 03:28N 23°40' W 117°47'1717.4
2014-Sep-15 02:29N 23°51' W 118°02'2217.3
2014-Sep-15 01:11N 24°05' W 118°20'1717.8
2014-Sep-15 00:14N 24°16' W 118°35'1217.6
2014-Sep-14 23:33N 24°23' W 118°45'2617.5
2014-Sep-14 22:04N 24°40' W 119°06'1217.1
2014-Sep-14 21:22N 24°48' W 119°17'24217.4
2014-Sep-14 07:25N 27°50' W 122°15'5017.5
2014-Sep-14 04:33N 28°33' W 122°44'18616.9
2014-Sep-13 17:31N 31°12' W 124°36'2318.2
2014-Sep-13 16:16N 31°32' W 124°50'21717.9
2014-Sep-13 04:09N 34°35' W 127°09'1118.1
2014-Sep-13 03:33N 34°42' W 127°20'1818.0
2014-Sep-13 02:33N 34°52' W 127°38'1818.1
2014-Sep-13 01:33N 35°01' W 127°57'1818.0
2014-Sep-13 00:33N 35°11' W 128°15'1818.0
2014-Sep-12 23:33N 35°22' W 128°33'3817.6
2014-Sep-12 21:22N 35°43' W 129°12'1517.6
2014-Sep-12 20:30N 35°52' W 129°28'1917.6
2014-Sep-12 19:27N 36°02' W 129°47'7417.7
2014-Sep-12 15:14N 36°43' W 131°05'1217.9
2014-Sep-12 14:33N 36°49' W 131°17'1818.0
2014-Sep-12 13:32N 36°59' W 131°37'2517.8
2014-Sep-12 12:09N 37°12' W 132°03'  

Dump ship's entire track history